createdAt,value
2018-07-12T00:02:13.437Z,19.61
2018-07-12T00:04:41.424Z,19.53
2018-07-12T00:07:09.406Z,19.66
2018-07-12T00:09:37.417Z,19.53
2018-07-12T00:12:05.455Z,19.55
2018-07-12T00:14:33.459Z,19.52
2018-07-12T00:17:01.863Z,19.54
2018-07-12T00:19:29.876Z,19.59
2018-07-12T00:21:57.859Z,19.60
2018-07-12T00:24:25.880Z,19.41
2018-07-12T00:26:53.871Z,19.43
2018-07-12T00:29:22.022Z,19.43
2018-07-12T00:31:50.699Z,19.40
2018-07-12T00:34:18.679Z,19.39
2018-07-12T00:36:46.675Z,19.47
2018-07-12T00:39:14.665Z,19.49
2018-07-12T00:41:42.684Z,19.40
2018-07-12T00:44:10.673Z,19.41
2018-07-12T00:46:38.702Z,19.54
2018-07-12T00:49:06.693Z,19.64
2018-07-12T00:51:34.706Z,19.74
2018-07-12T00:54:02.736Z,19.72
2018-07-12T00:56:30.781Z,19.57
2018-07-12T00:58:59.080Z,19.55
2018-07-12T01:01:27.052Z,19.58
2018-07-12T01:03:55.115Z,19.59
2018-07-12T01:06:23.094Z,19.73
2018-07-12T01:08:51.086Z,19.62
2018-07-12T01:11:19.374Z,19.68
2018-07-12T01:13:47.410Z,19.64
2018-07-12T01:16:15.442Z,19.59
2018-07-12T01:18:43.469Z,19.55
2018-07-12T01:21:12.260Z,19.47
2018-07-12T01:23:40.859Z,19.46
2018-07-12T01:26:08.926Z,19.54
2018-07-12T01:28:36.884Z,19.55
2018-07-12T01:31:04.854Z,19.66
2018-07-12T01:33:32.848Z,19.66
2018-07-12T01:36:00.970Z,19.70
2018-07-12T01:38:28.903Z,19.60
2018-07-12T01:40:57.012Z,19.61
2018-07-12T01:43:25.040Z,19.63
2018-07-12T01:45:53.060Z,19.56
2018-07-12T01:48:21.145Z,19.51
2018-07-12T01:50:49.848Z,19.49
2018-07-12T01:53:17.825Z,19.62
2018-07-12T01:55:45.870Z,19.68
2018-07-12T01:58:13.843Z,19.66
2018-07-12T02:00:42.173Z,19.68
2018-07-12T02:03:10.137Z,19.67
2018-07-12T02:05:38.172Z,19.64
2018-07-12T02:08:06.145Z,19.60
2018-07-12T02:10:34.133Z,19.53
2018-07-12T02:13:02.101Z,19.55
2018-07-12T02:15:30.415Z,19.61
2018-07-12T02:17:58.414Z,19.62
2018-07-12T02:20:26.406Z,19.62
2018-07-12T02:22:54.573Z,19.67
2018-07-12T02:25:22.553Z,19.77
2018-07-12T02:27:50.549Z,19.75
2018-07-12T02:30:18.549Z,19.84
2018-07-12T02:32:46.850Z,19.81
2018-07-12T02:35:14.934Z,19.77
2018-07-12T02:37:42.830Z,19.60
2018-07-12T02:40:10.848Z,19.41
2018-07-12T02:42:38.842Z,19.28
2018-07-12T02:45:06.885Z,19.21
2018-07-12T02:47:34.883Z,19.21
2018-07-12T02:50:02.939Z,19.33
2018-07-12T02:52:30.894Z,19.28
2018-07-12T02:54:58.917Z,19.20
2018-07-12T02:57:26.898Z,19.22
2018-07-12T02:59:54.913Z,19.12
2018-07-12T03:02:22.890Z,19.23
2018-07-12T03:04:50.944Z,19.35
2018-07-12T03:07:18.917Z,19.47
2018-07-12T03:09:47.236Z,19.51
2018-07-12T03:12:15.229Z,19.46
2018-07-12T03:14:43.224Z,19.47
2018-07-12T03:17:11.630Z,19.49
2018-07-12T03:19:39.595Z,19.57
2018-07-12T03:22:07.595Z,19.56
2018-07-12T03:24:35.562Z,19.61
2018-07-12T03:27:03.611Z,19.62
2018-07-12T03:29:31.596Z,19.61
2018-07-12T03:32:00.389Z,19.68
2018-07-12T03:34:28.405Z,19.71
2018-07-12T03:36:56.414Z,19.58
2018-07-12T03:39:24.394Z,19.52
2018-07-12T03:41:52.397Z,19.54
2018-07-12T03:44:20.419Z,19.64
2018-07-12T03:46:48.402Z,19.58
2018-07-12T03:49:16.381Z,19.57
2018-07-12T03:51:44.367Z,19.45
2018-07-12T03:54:12.399Z,19.33
2018-07-12T03:56:41.198Z,19.35
2018-07-12T03:59:09.175Z,19.39
2018-07-12T04:01:37.216Z,19.11
2018-07-12T04:04:05.417Z,19.29
2018-07-12T04:06:33.909Z,19.33
2018-07-12T04:09:01.898Z,19.38
2018-07-12T04:11:29.881Z,19.39
2018-07-12T04:13:57.912Z,19.31
2018-07-12T04:16:25.903Z,19.30
2018-07-12T04:18:53.933Z,19.38
2018-07-12T04:21:21.962Z,19.21
2018-07-12T04:23:49.893Z,19.18
2018-07-12T04:26:17.854Z,19.30
2018-07-12T04:28:45.892Z,19.26
2018-07-12T04:31:13.903Z,19.15
2018-07-12T04:33:41.924Z,19.07
2018-07-12T04:36:09.921Z,19.12
2018-07-12T04:38:38.391Z,19.14
2018-07-12T04:41:06.418Z,19.26
2018-07-12T04:43:34.431Z,19.33
2018-07-12T04:46:02.431Z,19.37
2018-07-12T04:48:30.455Z,19.36
2018-07-12T04:50:58.442Z,19.34
2018-07-12T04:53:26.447Z,19.49
2018-07-12T04:55:54.670Z,19.55
2018-07-12T04:58:23.554Z,19.52
2018-07-12T05:00:51.482Z,19.45
2018-07-12T05:03:19.481Z,19.43
2018-07-12T05:05:47.495Z,19.44
2018-07-12T05:08:15.516Z,19.38
2018-07-12T05:10:43.470Z,19.32
2018-07-12T05:13:11.434Z,19.34
2018-07-12T05:15:39.517Z,19.45
2018-07-12T05:18:07.508Z,19.57
2018-07-12T05:20:35.593Z,19.68
2018-07-12T05:23:03.598Z,19.68
2018-07-12T05:25:31.636Z,19.65
2018-07-12T05:27:59.597Z,19.55
2018-07-12T05:30:27.595Z,19.59
2018-07-12T05:32:55.676Z,19.41
2018-07-12T05:35:23.771Z,19.75
2018-07-12T05:37:52.820Z,19.86
2018-07-12T05:40:21.870Z,19.81
2018-07-12T05:42:50.929Z,19.76
2018-07-12T05:45:20.098Z,19.58
2018-07-12T05:47:49.169Z,19.65
2018-07-12T05:50:18.302Z,19.58
2018-07-12T05:52:48.036Z,19.68
2018-07-12T05:55:17.212Z,19.75
2018-07-12T05:57:46.330Z,19.86
2018-07-12T06:00:15.821Z,19.94
2018-07-12T06:02:44.954Z,19.89
2018-07-12T06:05:14.053Z,19.90
2018-07-12T06:07:43.092Z,19.93
2018-07-12T06:10:12.204Z,19.95
2018-07-12T06:12:41.394Z,19.90
2018-07-12T06:15:10.509Z,19.90
2018-07-12T06:17:39.637Z,20.01
2018-07-12T06:20:09.590Z,19.91
2018-07-12T06:22:38.747Z,19.98
2018-07-12T06:25:08.407Z,20.08
2018-07-12T06:27:38.069Z,20.08
2018-07-12T06:30:07.295Z,20.00
2018-07-12T06:32:36.312Z,20.09
2018-07-12T06:35:05.404Z,20.24
2018-07-12T06:37:34.622Z,20.09
2018-07-12T06:40:04.005Z,20.29
2018-07-12T06:42:33.148Z,20.37
2018-07-12T06:45:02.331Z,20.36
2018-07-12T06:47:31.490Z,20.34
2018-07-12T06:50:00.682Z,20.37
2018-07-12T06:52:29.997Z,20.42
2018-07-12T06:54:59.115Z,20.26
2018-07-12T06:57:28.248Z,20.15
2018-07-12T06:59:57.315Z,20.18
2018-07-12T07:02:26.405Z,20.20
2018-07-12T07:04:55.512Z,20.21
2018-07-12T07:07:24.629Z,20.34
2018-07-12T07:09:53.744Z,20.37
2018-07-12T07:12:22.835Z,20.17
2018-07-12T07:14:51.936Z,20.19
2018-07-12T07:17:21.078Z,20.28
2018-07-12T07:19:50.206Z,20.32
2018-07-12T07:22:19.373Z,20.29
2018-07-12T07:24:48.459Z,20.47
2018-07-12T07:27:17.574Z,20.60
2018-07-12T07:29:46.645Z,20.53
2018-07-12T07:32:16.939Z,20.27
2018-07-12T07:34:46.107Z,20.36
2018-07-12T07:37:15.433Z,20.39
2018-07-12T07:39:44.524Z,20.42
2018-07-12T07:42:14.625Z,20.51
2018-07-12T07:44:43.916Z,20.48
2018-07-12T07:47:13.022Z,20.32
2018-07-12T07:49:42.180Z,20.36
2018-07-12T07:52:11.661Z,20.42
2018-07-12T07:54:40.898Z,20.37
2018-07-12T07:57:10.591Z,20.53
2018-07-12T07:59:40.502Z,20.65
2018-07-12T08:02:09.651Z,20.69
2018-07-12T08:04:38.822Z,20.69
2018-07-12T08:07:08.268Z,20.55
2018-07-12T08:09:37.556Z,20.67
2018-07-12T08:12:06.658Z,20.75
2018-07-12T08:14:35.958Z,20.77
2018-07-12T08:17:05.063Z,20.81
2018-07-12T08:19:34.306Z,20.95
2018-07-12T08:22:07.279Z,20.96
2018-07-12T08:24:36.713Z,21.11
2018-07-12T08:27:06.176Z,21.13
2018-07-12T08:29:35.365Z,20.89
2018-07-12T08:32:05.268Z,20.82
2018-07-12T08:34:34.428Z,21.09
2018-07-12T08:37:03.713Z,21.21
2018-07-12T08:39:32.939Z,21.38
2018-07-12T08:42:02.161Z,21.45
2018-07-12T08:44:31.394Z,21.27
2018-07-12T08:47:00.595Z,21.36
2018-07-12T08:49:29.730Z,21.50
2018-07-12T08:51:58.886Z,21.42
2018-07-12T08:54:27.989Z,21.39
2018-07-12T08:56:57.162Z,21.48
2018-07-12T08:59:26.338Z,21.46
2018-07-12T09:01:55.452Z,21.51
2018-07-12T09:04:25.418Z,21.79
2018-07-12T09:06:54.585Z,21.96
2018-07-12T09:09:23.745Z,22.10
2018-07-12T09:11:53.628Z,22.29
2018-07-12T09:14:23.714Z,22.40
2018-07-12T09:16:52.900Z,22.57
2018-07-12T09:19:22.068Z,22.77
2018-07-12T09:21:51.623Z,22.94
2018-07-12T09:24:20.950Z,22.98
2018-07-12T09:26:50.056Z,23.00
2018-07-12T09:29:23.288Z,23.04
2018-07-12T09:31:52.369Z,22.76
2018-07-12T09:34:21.480Z,22.54
2018-07-12T09:36:50.625Z,22.63
2018-07-12T09:39:19.829Z,22.75
2018-07-12T09:41:49.066Z,22.93
2018-07-12T09:44:18.733Z,22.96
2018-07-12T09:46:47.777Z,22.96
2018-07-12T09:49:17.080Z,22.70
2018-07-12T09:51:46.466Z,22.55
2018-07-12T09:54:15.954Z,22.72
2018-07-12T09:56:56.309Z,22.88
2018-07-12T09:59:25.503Z,23.00
2018-07-12T10:01:59.727Z,23.18
2018-07-12T10:04:28.841Z,23.27
2018-07-12T10:07:03.370Z,23.38
2018-07-12T10:09:37.998Z,23.44
2018-07-12T10:12:15.011Z,23.46
2018-07-12T10:14:49.685Z,23.37
2018-07-12T10:17:24.111Z,23.05
2018-07-12T10:19:53.177Z,23.20
2018-07-12T10:22:22.325Z,23.28
2018-07-12T10:24:51.575Z,23.44
2018-07-12T10:27:20.719Z,23.63
2018-07-12T10:29:49.839Z,23.76
2018-07-12T10:32:19.318Z,23.39
2018-07-12T10:34:48.455Z,23.29
2018-07-12T10:37:17.925Z,23.37
2018-07-12T10:39:47.253Z,23.61
2018-07-12T10:42:16.663Z,23.98
2018-07-12T10:44:45.819Z,24.18
2018-07-12T10:47:14.871Z,24.12
2018-07-12T10:49:43.964Z,24.05
2018-07-12T10:52:13.335Z,24.35
2018-07-12T10:54:42.464Z,24.80
2018-07-12T10:57:11.871Z,24.94
2018-07-12T10:59:41.237Z,25.09
2018-07-12T11:02:10.413Z,25.26
2018-07-12T11:04:39.819Z,25.63
2018-07-12T11:07:09.183Z,25.40
2018-07-12T11:09:38.303Z,25.44
2018-07-12T11:12:07.461Z,25.06
2018-07-12T11:14:36.503Z,24.69
2018-07-12T11:17:05.598Z,24.52
2018-07-12T11:19:34.661Z,24.50
2018-07-12T11:22:03.710Z,24.44
2018-07-12T11:24:32.774Z,24.35
2018-07-12T11:27:01.814Z,24.04
2018-07-12T11:29:42.305Z,24.07
2018-07-12T11:32:11.429Z,24.60
2018-07-12T11:34:40.974Z,25.08
2018-07-12T11:37:14.762Z,25.33
2018-07-12T11:39:43.885Z,25.87
2018-07-12T11:42:13.274Z,25.84
2018-07-12T11:44:42.399Z,25.33
2018-07-12T11:47:11.986Z,25.38
2018-07-12T11:49:41.039Z,25.24
2018-07-12T11:52:10.153Z,25.03
2018-07-12T11:54:39.234Z,25.14
2018-07-12T11:57:08.346Z,25.15
2018-07-12T11:59:37.440Z,25.35
2018-07-12T12:02:06.604Z,25.28
2018-07-12T12:04:35.709Z,25.18
2018-07-12T12:07:04.862Z,25.28
2018-07-12T12:09:34.009Z,25.68
2018-07-12T12:12:03.459Z,25.96
2018-07-12T12:14:32.703Z,26.38
2018-07-12T12:17:01.749Z,26.36
2018-07-12T12:19:30.939Z,26.47
2018-07-12T12:22:00.732Z,26.55
2018-07-12T12:24:29.821Z,26.81
2018-07-12T12:26:58.855Z,27.00
2018-07-12T12:29:27.971Z,26.86
2018-07-12T12:31:57.043Z,26.22
2018-07-12T12:34:26.109Z,26.07
2018-07-12T12:36:55.179Z,26.12
2018-07-12T12:39:24.491Z,25.77
2018-07-12T12:41:53.572Z,25.45
2018-07-12T12:44:22.665Z,25.37
2018-07-12T12:46:51.786Z,25.36
2018-07-12T12:49:20.993Z,25.42
2018-07-12T12:51:50.077Z,25.70
2018-07-12T12:54:19.167Z,25.68
2018-07-12T12:56:48.227Z,26.02
2018-07-12T12:59:17.459Z,26.65
2018-07-12T13:01:46.498Z,27.31
2018-07-12T13:04:15.655Z,27.90
2018-07-12T13:06:44.874Z,28.17
2018-07-12T13:09:13.894Z,27.61
2018-07-12T13:11:42.937Z,27.19
2018-07-12T13:14:11.998Z,26.87
2018-07-12T13:16:41.127Z,26.75
2018-07-12T13:19:10.201Z,26.64
2018-07-12T13:21:39.365Z,26.35
2018-07-12T13:24:08.615Z,26.43
2018-07-12T13:26:37.761Z,26.59
2018-07-12T13:29:07.155Z,26.92
2018-07-12T13:31:36.216Z,27.64
2018-07-12T13:34:05.470Z,28.13
2018-07-12T13:36:34.584Z,27.60
2018-07-12T13:39:04.291Z,27.14
2018-07-12T13:41:33.666Z,27.34
2018-07-12T13:44:14.151Z,27.84
2018-07-12T13:46:43.370Z,27.59
2018-07-12T13:49:12.869Z,27.62
2018-07-12T13:51:42.078Z,27.98
2018-07-12T13:54:11.134Z,28.64
2018-07-12T13:56:40.321Z,28.91
2018-07-12T13:59:09.801Z,29.11
2018-07-12T14:01:39.034Z,28.83
2018-07-12T14:04:09.089Z,29.12
2018-07-12T14:06:38.505Z,29.34
2018-07-12T14:09:10.159Z,29.52
2018-07-12T14:11:39.482Z,29.67
2018-07-12T14:14:09.086Z,29.43
2018-07-12T14:16:38.415Z,29.09
2018-07-12T14:19:07.595Z,28.62
2018-07-12T14:21:36.613Z,27.71
2018-07-12T14:24:05.701Z,27.56
2018-07-12T14:26:34.853Z,27.65
2018-07-12T14:29:03.989Z,27.82
2018-07-12T14:31:33.086Z,27.76
2018-07-12T14:34:02.258Z,28.00
2018-07-12T14:36:31.375Z,27.77
2018-07-12T14:39:00.435Z,27.92
2018-07-12T14:41:29.495Z,28.34
2018-07-12T14:43:58.663Z,28.85
2018-07-12T14:46:27.784Z,29.53
2018-07-12T14:48:56.971Z,29.46
2018-07-12T14:51:26.039Z,30.27
2018-07-12T14:53:55.689Z,29.94
2018-07-12T14:56:24.940Z,29.68
2018-07-12T14:58:57.608Z,29.85
2018-07-12T15:01:26.780Z,30.25
2018-07-12T15:03:55.950Z,30.33
2018-07-12T15:06:25.935Z,30.53
2018-07-12T15:08:57.936Z,31.07
2018-07-12T15:11:27.039Z,31.05
2018-07-12T15:13:56.530Z,31.12
2018-07-12T15:16:25.650Z,30.80
2018-07-12T15:21:56.017Z,30.64
2018-07-12T15:24:25.591Z,30.80
2018-07-12T15:26:54.798Z,30.36
2018-07-12T15:29:24.043Z,30.33
2018-07-12T15:31:55.481Z,30.48
2018-07-12T15:34:26.061Z,30.13
2018-07-12T15:36:55.145Z,30.17
2018-07-12T15:39:24.571Z,30.58
2018-07-12T15:41:53.733Z,30.96
2018-07-12T15:44:22.862Z,31.15
2018-07-12T15:46:52.010Z,31.05
2018-07-12T15:49:21.442Z,31.23
2018-07-12T15:51:50.758Z,31.24
2018-07-12T15:54:19.890Z,31.46
2018-07-12T15:56:49.076Z,31.78
2018-07-12T15:59:18.647Z,32.47
2018-07-12T16:01:48.069Z,32.85
2018-07-12T16:04:17.319Z,31.88
2018-07-12T16:06:46.474Z,31.80
2018-07-12T16:09:15.592Z,31.97
2018-07-12T16:11:44.770Z,32.03
2018-07-12T16:14:13.874Z,32.62
2018-07-12T16:16:43.055Z,31.96
2018-07-12T16:19:12.640Z,32.51
2018-07-12T16:21:41.769Z,32.54
2018-07-12T16:24:10.910Z,31.75
2018-07-12T16:26:40.252Z,31.08
2018-07-12T16:29:09.311Z,30.85
2018-07-12T16:31:38.451Z,31.65
2018-07-12T16:34:07.902Z,31.49
2018-07-12T16:36:37.004Z,32.00
2018-07-12T16:39:07.273Z,31.49
2018-07-12T16:41:36.417Z,31.05
2018-07-12T16:44:05.899Z,31.26
2018-07-12T16:46:34.950Z,31.77
2018-07-12T16:49:04.090Z,32.19
2018-07-12T16:51:33.414Z,31.98
2018-07-12T16:54:02.730Z,32.11
2018-07-12T16:56:31.826Z,31.59
2018-07-12T16:59:01.084Z,31.60
2018-07-12T17:01:30.258Z,31.52
2018-07-12T17:03:59.553Z,31.27
2018-07-12T17:06:29.027Z,31.97
2018-07-12T17:08:58.214Z,32.35
2018-07-12T17:11:27.391Z,31.60
2018-07-12T17:13:56.654Z,30.73
2018-07-12T17:16:25.751Z,29.73
2018-07-12T17:18:54.841Z,29.30
2018-07-12T17:21:23.954Z,28.99
2018-07-12T17:23:53.048Z,28.86
2018-07-12T17:26:22.116Z,28.92
2018-07-12T17:28:51.278Z,29.05
2018-07-12T17:31:20.387Z,29.18
2018-07-12T17:33:49.504Z,29.30
2018-07-12T17:36:18.719Z,28.34
2018-07-12T17:38:47.836Z,28.84
2018-07-12T17:41:17.070Z,28.56
2018-07-12T17:43:46.110Z,28.10
2018-07-12T17:46:15.278Z,27.88
2018-07-12T17:48:44.423Z,27.99
2018-07-12T17:51:13.625Z,28.03
2018-07-12T17:53:42.743Z,28.40
2018-07-12T17:56:12.036Z,27.96
2018-07-12T17:58:41.288Z,27.89
2018-07-12T18:01:10.429Z,28.09
2018-07-12T18:03:39.494Z,27.83
2018-07-12T18:06:08.905Z,27.50
2018-07-12T18:08:38.134Z,27.25
2018-07-12T18:11:07.420Z,27.12
2018-07-12T18:13:36.518Z,27.35
2018-07-12T18:16:05.942Z,27.25
2018-07-12T18:18:35.104Z,27.34
2018-07-12T18:21:04.714Z,27.32
2018-07-12T18:23:33.879Z,27.63
2018-07-12T18:26:03.080Z,27.89
2018-07-12T18:28:32.232Z,27.95
2018-07-12T18:31:01.285Z,27.70
2018-07-12T18:33:30.722Z,27.63
2018-07-12T18:36:00.192Z,27.50
2018-07-12T18:38:29.728Z,27.18
2018-07-12T18:40:58.780Z,27.26
2018-07-12T18:43:27.953Z,27.29
2018-07-12T18:45:57.485Z,27.14
2018-07-12T18:48:26.678Z,27.04
2018-07-12T18:50:55.934Z,26.91
2018-07-12T18:53:25.079Z,27.02
2018-07-12T18:55:54.198Z,26.94
2018-07-12T18:58:23.470Z,26.72
2018-07-12T19:00:52.510Z,26.80
2018-07-12T19:03:21.611Z,26.81
2018-07-12T19:05:50.683Z,26.69
2018-07-12T19:08:20.061Z,26.66
2018-07-12T19:10:49.153Z,26.57
2018-07-12T19:13:18.448Z,26.44
2018-07-12T19:15:47.571Z,26.44
2018-07-12T19:18:16.681Z,26.39
2018-07-12T19:20:45.799Z,26.58
2018-07-12T19:23:14.801Z,26.45
2018-07-12T19:25:43.919Z,26.24
2018-07-12T19:28:13.069Z,26.11
2018-07-12T19:30:42.174Z,26.02
2018-07-12T19:33:11.262Z,26.07
2018-07-12T19:35:40.390Z,26.26
2018-07-12T19:38:09.631Z,26.27
2018-07-12T19:40:38.810Z,26.33
2018-07-12T19:43:07.904Z,26.37
2018-07-12T19:45:37.011Z,26.31
2018-07-12T19:48:06.470Z,26.36
2018-07-12T19:50:35.542Z,26.30
2018-07-12T19:53:04.720Z,26.26
2018-07-12T19:55:33.847Z,26.26
2018-07-12T19:58:02.978Z,26.21
2018-07-12T20:00:32.040Z,26.16
2018-07-12T20:03:01.207Z,26.15
2018-07-12T20:05:31.097Z,26.10
2018-07-12T20:08:00.154Z,26.05
2018-07-12T20:10:29.305Z,25.85
2018-07-12T20:12:58.475Z,25.61
2018-07-12T20:15:27.787Z,25.70
2018-07-12T20:17:56.829Z,25.67
2018-07-12T20:20:25.956Z,25.47
2018-07-12T20:22:55.103Z,25.38
2018-07-12T20:25:24.423Z,25.39
2018-07-12T20:27:53.415Z,25.36
2018-07-12T20:30:22.525Z,25.34
2018-07-12T20:32:51.590Z,25.34
2018-07-12T20:35:20.655Z,25.29
2018-07-12T20:37:49.699Z,25.34
2018-07-12T20:40:19.231Z,25.33
2018-07-12T20:42:48.340Z,25.23
2018-07-12T20:45:17.455Z,25.08
2018-07-12T20:47:46.554Z,24.99
2018-07-12T20:50:15.646Z,24.95
2018-07-12T20:52:44.769Z,24.84
2018-07-12T20:55:14.001Z,24.76
2018-07-12T20:57:43.138Z,24.72
2018-07-12T21:00:12.261Z,24.66
2018-07-12T21:02:41.424Z,24.55
2018-07-12T21:05:10.544Z,24.64
2018-07-12T21:07:39.651Z,24.55
2018-07-12T21:10:08.718Z,24.34
2018-07-12T21:12:37.850Z,24.05
2018-07-12T21:15:06.914Z,23.63
2018-07-12T21:17:36.041Z,23.19
2018-07-12T21:20:05.832Z,22.99
2018-07-12T21:22:35.226Z,22.88
2018-07-12T21:25:04.608Z,22.69
2018-07-12T21:27:33.703Z,22.81
2018-07-12T21:30:02.822Z,23.07
2018-07-12T21:32:31.999Z,23.28
2018-07-12T21:35:01.074Z,23.53
2018-07-12T21:37:30.367Z,23.60
2018-07-12T21:39:59.458Z,23.74
2018-07-12T21:42:29.106Z,23.50
2018-07-12T21:44:58.593Z,23.06
2018-07-12T21:47:30.623Z,22.75
2018-07-12T21:49:59.682Z,22.53
2018-07-12T21:52:28.801Z,22.39
2018-07-12T21:54:58.068Z,22.26
2018-07-12T21:57:27.177Z,22.15
2018-07-12T21:59:56.273Z,22.14
2018-07-12T22:02:25.430Z,22.12
2018-07-12T22:05:01.697Z,22.10
2018-07-12T22:08:10.665Z,22.00
2018-07-12T22:10:39.833Z,21.93
2018-07-12T22:13:09.120Z,21.91
2018-07-12T22:15:38.184Z,21.76
2018-07-12T22:18:07.496Z,21.70
2018-07-12T22:20:36.673Z,21.62
2018-07-12T22:23:05.741Z,21.41
2018-07-12T22:25:34.831Z,21.20
2018-07-12T22:28:03.853Z,21.09
2018-07-12T22:30:33.039Z,21.10
2018-07-12T22:33:04.649Z,21.20
2018-07-12T22:35:33.723Z,21.17
2018-07-12T22:38:03.635Z,21.13
2018-07-12T22:40:33.044Z,21.19
2018-07-12T22:43:02.213Z,21.05
2018-07-12T22:45:31.388Z,20.64
2018-07-12T22:48:00.495Z,21.13
2018-07-12T22:50:29.515Z,21.07
2018-07-12T22:52:58.661Z,20.75
2018-07-12T22:55:27.723Z,20.74
2018-07-12T22:57:56.767Z,20.73
2018-07-12T23:00:25.819Z,20.56
2018-07-12T23:02:55.062Z,20.78
2018-07-12T23:05:24.118Z,20.74
2018-07-12T23:07:53.261Z,20.72
2018-07-12T23:10:22.355Z,20.81
2018-07-12T23:12:51.489Z,20.64
2018-07-12T23:15:20.539Z,20.60
2018-07-12T23:17:49.642Z,20.43
2018-07-12T23:20:18.736Z,20.40
2018-07-12T23:22:47.870Z,20.41
2018-07-12T23:25:16.999Z,20.36
2018-07-12T23:27:46.094Z,20.31
2018-07-12T23:30:15.193Z,20.26
2018-07-12T23:32:44.282Z,20.31
2018-07-12T23:35:13.307Z,20.27
2018-07-12T23:37:42.398Z,20.21
2018-07-12T23:40:11.471Z,20.18
2018-07-12T23:42:40.530Z,20.01
2018-07-12T23:45:09.609Z,20.16
2018-07-12T23:47:38.666Z,19.92
2018-07-12T23:50:07.757Z,19.89
2018-07-12T23:52:36.884Z,19.92
2018-07-12T23:55:06.386Z,19.86
2018-07-12T23:57:35.410Z,19.61
